createdAt,value
2023-01-27T00:00:56.774Z,8.00
2023-01-27T00:03:24.949Z,7.40
2023-01-27T00:05:54.133Z,6.03
2023-01-27T00:08:22.335Z,13.57
2023-01-27T00:11:10.675Z,5.60
2023-01-27T00:13:37.435Z,7.87
2023-01-27T00:16:05.601Z,7.90
2023-01-27T00:18:33.417Z,8.30
2023-01-27T00:21:20.144Z,4.90
2023-01-27T00:24:06.400Z,6.00
2023-01-27T00:26:34.436Z,8.77
2023-01-27T00:29:02.252Z,10.17
2023-01-27T00:31:47.588Z,6.90
2023-01-27T00:34:15.523Z,14.13
2023-01-27T00:36:44.666Z,11.87
2023-01-27T00:39:13.821Z,9.00
2023-01-27T00:41:41.627Z,8.37
2023-01-27T00:44:13.125Z,6.43
2023-01-27T00:46:41.346Z,4.83
2023-01-27T00:49:09.791Z,7.57
2023-01-27T00:51:37.628Z,8.37
2023-01-27T00:54:07.121Z,6.03
2023-01-27T00:56:35.676Z,3.03
2023-01-27T00:59:03.440Z,5.57
2023-01-27T01:01:34.477Z,4.17
2023-01-27T01:04:02.434Z,7.57
2023-01-27T01:06:31.154Z,2.50
2023-01-27T01:08:59.629Z,3.77
2023-01-27T01:11:28.774Z,5.87
2023-01-27T01:13:56.973Z,7.77
2023-01-27T01:16:25.855Z,7.47
2023-01-27T01:18:53.979Z,6.13
2023-01-27T01:21:21.899Z,3.20
2023-01-27T01:23:49.856Z,4.83
2023-01-27T01:26:18.764Z,4.57
2023-01-27T01:28:48.277Z,3.40
2023-01-27T01:31:18.377Z,5.47
2023-01-27T01:33:46.444Z,4.50
2023-01-27T01:36:16.224Z,6.97
2023-01-27T01:38:44.131Z,4.47
2023-01-27T01:41:14.980Z,7.83
2023-01-27T01:43:42.953Z,2.50
2023-01-27T01:46:13.152Z,6.53
2023-01-27T01:48:44.413Z,3.80
2023-01-27T01:51:16.196Z,3.67
2023-01-27T01:53:52.123Z,3.83
2023-01-27T01:56:24.285Z,6.90
2023-01-27T01:58:52.746Z,4.37
2023-01-27T02:01:22.003Z,5.63
2023-01-27T02:03:54.573Z,9.37
2023-01-27T02:06:22.994Z,2.53
2023-01-27T02:08:52.458Z,6.40
2023-01-27T02:11:20.533Z,2.37
2023-01-27T02:13:48.672Z,3.30
2023-01-27T02:16:16.614Z,3.90
2023-01-27T02:18:46.111Z,4.23
2023-01-27T02:21:14.431Z,8.47
2023-01-27T02:23:50.670Z,3.50
2023-01-27T02:26:23.326Z,8.60
2023-01-27T02:28:57.029Z,5.53
2023-01-27T02:31:25.076Z,4.50
2023-01-27T02:33:56.010Z,4.73
2023-01-27T02:36:24.445Z,2.97
2023-01-27T02:38:55.798Z,3.70
2023-01-27T02:41:28.286Z,5.87
2023-01-27T02:43:56.979Z,1.90
2023-01-27T02:46:24.804Z,4.37
2023-01-27T02:48:52.900Z,3.13
2023-01-27T02:51:20.750Z,3.63
2023-01-27T02:53:48.565Z,2.83
2023-01-27T02:56:16.305Z,5.30
2023-01-27T02:58:45.699Z,2.10
2023-01-27T03:01:13.782Z,2.67
2023-01-27T03:03:47.376Z,6.47
2023-01-27T03:06:15.741Z,4.23
2023-01-27T03:08:43.527Z,2.40
2023-01-27T03:11:12.422Z,6.30
2023-01-27T03:13:40.306Z,4.10
2023-01-27T03:16:27.458Z,5.27
2023-01-27T03:18:56.482Z,4.87
2023-01-27T03:21:24.368Z,9.20
2023-01-27T03:23:52.193Z,6.20
2023-01-27T03:26:19.931Z,3.70
2023-01-27T03:29:07.747Z,3.83
2023-01-27T03:31:37.006Z,3.27
2023-01-27T03:34:04.840Z,6.53
2023-01-27T03:36:50.412Z,4.93
2023-01-27T03:39:35.905Z,10.23
2023-01-27T03:42:21.221Z,8.97
2023-01-27T03:45:06.602Z,5.83
2023-01-27T03:47:35.675Z,7.90
2023-01-27T03:50:03.458Z,6.40
2023-01-27T03:52:31.141Z,4.53
2023-01-27T03:54:58.874Z,7.13
2023-01-27T03:57:26.648Z,7.33
2023-01-27T03:59:54.333Z,5.97
2023-01-27T04:02:39.728Z,9.17
2023-01-27T04:05:27.713Z,8.20
2023-01-27T04:07:55.478Z,6.03
2023-01-27T04:10:23.305Z,5.90
2023-01-27T04:12:50.130Z,6.47
2023-01-27T04:15:18.299Z,10.60
2023-01-27T04:17:46.091Z,5.70
2023-01-27T04:20:15.647Z,7.63
2023-01-27T04:22:43.337Z,7.97
2023-01-27T04:25:13.288Z,6.87
2023-01-27T04:27:43.404Z,7.93
2023-01-27T04:30:12.386Z,10.00
2023-01-27T04:32:40.096Z,6.93
2023-01-27T04:35:08.598Z,7.67
2023-01-27T04:37:37.770Z,6.60
2023-01-27T04:40:06.670Z,7.50
2023-01-27T04:42:34.746Z,8.00
2023-01-27T04:45:02.537Z,5.53
2023-01-27T04:47:30.247Z,10.03
2023-01-27T04:49:57.949Z,7.90
2023-01-27T04:52:25.807Z,7.77
2023-01-27T04:54:54.865Z,7.60
2023-01-27T04:57:22.590Z,7.30
2023-01-27T04:59:51.098Z,8.07
2023-01-27T05:02:18.915Z,8.67
2023-01-27T05:04:46.689Z,8.07
2023-01-27T05:07:14.549Z,6.93
2023-01-27T05:09:42.394Z,11.70
2023-01-27T05:12:11.504Z,7.87
2023-01-27T05:14:39.253Z,6.83
2023-01-27T05:17:07.124Z,6.03
2023-01-27T05:19:34.929Z,6.43
2023-01-27T05:22:02.664Z,4.50
2023-01-27T05:24:30.719Z,4.30
2023-01-27T05:26:58.623Z,3.87
2023-01-27T05:29:27.767Z,2.73
2023-01-27T05:31:55.501Z,4.20
2023-01-27T05:34:23.430Z,2.73
2023-01-27T05:36:51.559Z,4.33
2023-01-27T05:39:19.742Z,2.63
2023-01-27T05:41:47.469Z,3.63
2023-01-27T05:44:15.259Z,3.50
2023-01-27T05:46:44.397Z,2.60
2023-01-27T05:49:12.488Z,2.10
2023-01-27T05:51:41.364Z,2.73
2023-01-27T05:54:09.909Z,2.77
2023-01-27T05:56:37.732Z,1.90
2023-01-27T05:59:06.104Z,3.60
2023-01-27T06:01:35.345Z,3.03
2023-01-27T06:04:05.361Z,2.10
2023-01-27T06:06:34.532Z,3.03
2023-01-27T06:09:02.325Z,2.90
2023-01-27T06:11:30.190Z,2.10
2023-01-27T06:13:58.075Z,2.33
2023-01-27T06:16:25.977Z,2.20
2023-01-27T06:18:53.704Z,2.20
2023-01-27T06:21:23.004Z,1.97
2023-01-27T06:23:50.744Z,3.60
2023-01-27T06:26:20.277Z,4.10
2023-01-27T06:28:48.083Z,2.03
2023-01-27T06:31:28.099Z,2.67
2023-01-27T06:33:55.961Z,2.90
2023-01-27T06:36:25.124Z,4.63
2023-01-27T06:38:53.001Z,1.87
2023-01-27T06:41:20.962Z,2.37
2023-01-27T06:43:48.782Z,1.40
2023-01-27T06:46:16.619Z,2.60
2023-01-27T06:48:44.533Z,1.37
2023-01-27T06:51:12.811Z,1.57
2023-01-27T06:53:41.871Z,1.97
2023-01-27T06:56:09.720Z,2.80
2023-01-27T06:58:37.492Z,2.60
2023-01-27T07:01:07.210Z,1.73
2023-01-27T07:06:01.896Z,1.80
2023-01-27T07:08:29.677Z,1.47
2023-01-27T07:10:58.886Z,1.30
2023-01-27T07:13:26.596Z,1.10
2023-01-27T07:15:57.830Z,1.83
2023-01-27T07:18:25.760Z,1.30
2023-01-27T07:20:53.698Z,2.90
2023-01-27T07:23:22.120Z,3.37
2023-01-27T07:25:50.095Z,1.20
2023-01-27T07:28:19.162Z,2.83
2023-01-27T07:30:46.993Z,1.40
2023-01-27T07:33:15.440Z,1.70
2023-01-27T07:35:43.654Z,2.43
2023-01-27T07:38:12.014Z,1.90
2023-01-27T07:40:39.780Z,2.03
2023-01-27T07:43:07.946Z,1.00
2023-01-27T07:45:37.358Z,1.20
2023-01-27T07:48:07.123Z,2.90
2023-01-27T07:50:35.280Z,1.13
2023-01-27T07:53:05.062Z,1.50
2023-01-27T07:55:34.338Z,1.43
2023-01-27T07:58:02.347Z,3.43
2023-01-27T08:00:30.420Z,1.37
2023-01-27T08:03:00.672Z,2.50
2023-01-27T08:05:29.716Z,2.50
2023-01-27T08:07:59.023Z,1.30
2023-01-27T08:10:27.071Z,1.23
2023-01-27T08:12:54.906Z,2.20
2023-01-27T08:15:23.289Z,3.13
2023-01-27T08:17:55.747Z,2.23
2023-01-27T08:20:26.571Z,1.63
2023-01-27T08:22:54.494Z,1.93
2023-01-27T08:25:22.714Z,1.97
2023-01-27T08:27:51.664Z,4.33
2023-01-27T08:30:20.461Z,4.83
2023-01-27T08:32:48.292Z,1.60
2023-01-27T08:35:16.285Z,1.90
2023-01-27T08:37:48.211Z,1.40
2023-01-27T08:40:16.344Z,1.63
2023-01-27T08:42:44.109Z,1.33
2023-01-27T08:45:12.076Z,2.90
2023-01-27T08:47:39.778Z,1.33
2023-01-27T08:50:08.472Z,2.03
2023-01-27T08:52:36.259Z,3.63
2023-01-27T08:55:05.874Z,1.50
2023-01-27T08:57:35.856Z,1.83
2023-01-27T09:00:06.437Z,2.33
2023-01-27T09:02:34.520Z,2.90
2023-01-27T09:05:02.374Z,2.97
2023-01-27T09:07:30.168Z,2.83
2023-01-27T09:10:12.649Z,0.90
2023-01-27T09:12:43.232Z,2.30
2023-01-27T09:15:12.586Z,1.50
2023-01-27T09:17:40.660Z,1.30
2023-01-27T09:20:09.582Z,1.10
2023-01-27T09:22:40.097Z,1.17
2023-01-27T09:25:09.312Z,5.13
2023-01-27T09:27:39.455Z,1.17
2023-01-27T09:30:11.189Z,2.77
2023-01-27T09:32:39.378Z,2.43
2023-01-27T09:35:08.316Z,2.03
2023-01-27T09:37:42.082Z,2.20
2023-01-27T09:40:19.654Z,1.43
2023-01-27T09:43:12.392Z,3.13
2023-01-27T09:45:57.508Z,1.40
2023-01-27T09:48:39.625Z,4.00
2023-01-27T09:51:17.138Z,2.97
2023-01-27T09:54:16.226Z,1.23
2023-01-27T09:56:53.231Z,2.50
2023-01-27T09:59:52.029Z,1.10
2023-01-27T10:02:36.983Z,1.40
2023-01-27T10:05:36.186Z,1.13
2023-01-27T10:08:26.906Z,1.73
2023-01-27T10:11:07.526Z,0.97
2023-01-27T10:13:45.942Z,1.53
2023-01-27T10:16:37.840Z,1.63
2023-01-27T10:19:22.537Z,2.43
2023-01-27T10:22:01.552Z,3.10
2023-01-27T10:24:41.826Z,0.80
2023-01-27T10:27:17.606Z,2.47
2023-01-27T10:29:47.689Z,1.87
2023-01-27T10:32:26.691Z,0.83
2023-01-27T10:35:09.178Z,3.03
2023-01-27T10:37:48.569Z,1.90
2023-01-27T10:40:25.011Z,1.00
2023-01-27T10:43:02.134Z,0.60
2023-01-27T10:45:37.644Z,1.23
2023-01-27T10:48:24.505Z,1.53
2023-01-27T10:50:59.345Z,1.40
2023-01-27T10:53:33.475Z,1.90
2023-01-27T10:56:08.427Z,2.40
2023-01-27T10:58:46.975Z,2.37
2023-01-27T11:01:21.923Z,1.97
2023-01-27T11:03:56.533Z,0.90
2023-01-27T11:06:30.594Z,1.93
2023-01-27T11:09:07.553Z,2.30
2023-01-27T11:11:45.398Z,2.23
2023-01-27T11:14:27.560Z,1.30
2023-01-27T11:17:01.640Z,1.13
2023-01-27T11:19:39.405Z,0.77
2023-01-27T11:22:18.635Z,1.87
2023-01-27T11:24:49.038Z,2.20
2023-01-27T11:27:28.181Z,0.60
2023-01-27T11:30:00.749Z,2.07
2023-01-27T11:32:49.046Z,0.80
2023-01-27T11:35:17.429Z,0.53
2023-01-27T11:37:48.871Z,1.00
2023-01-27T11:40:20.404Z,1.37
2023-01-27T11:42:48.286Z,0.83
2023-01-27T11:45:18.701Z,0.93
2023-01-27T11:47:49.006Z,1.20
2023-01-27T11:50:20.725Z,1.80
2023-01-27T11:52:53.245Z,0.87
2023-01-27T11:55:25.543Z,0.70
2023-01-27T11:57:57.577Z,0.50
2023-01-27T12:00:31.468Z,0.37
2023-01-27T12:03:06.532Z,0.50
2023-01-27T12:05:38.133Z,1.90
2023-01-27T12:08:07.542Z,0.87
2023-01-27T12:10:38.777Z,1.07
2023-01-27T12:13:10.356Z,1.60
2023-01-27T12:15:40.237Z,0.60
2023-01-27T12:18:15.086Z,2.13
2023-01-27T12:20:45.721Z,0.77
2023-01-27T12:23:22.158Z,0.93
2023-01-27T12:25:55.924Z,3.73
2023-01-27T12:28:31.216Z,0.70
2023-01-27T12:31:06.815Z,0.50
2023-01-27T12:33:36.730Z,0.70
2023-01-27T12:36:13.202Z,0.67
2023-01-27T12:38:47.373Z,1.07
2023-01-27T12:41:24.055Z,0.80
2023-01-27T12:43:54.646Z,1.13
2023-01-27T12:46:24.636Z,2.47
2023-01-27T12:48:54.504Z,0.70
2023-01-27T12:51:24.120Z,2.10
2023-01-27T12:54:21.869Z,1.30
2023-01-27T12:56:50.055Z,1.50
2023-01-27T12:59:21.399Z,2.57
2023-01-27T13:02:00.837Z,4.67
2023-01-27T13:04:30.022Z,1.57
2023-01-27T13:07:06.028Z,2.57
2023-01-27T13:09:38.750Z,2.13
2023-01-27T13:12:16.829Z,1.10
2023-01-27T13:14:45.123Z,3.80
2023-01-27T13:17:38.274Z,5.20
2023-01-27T13:20:17.084Z,1.67
2023-01-27T13:22:48.670Z,2.40
2023-01-27T13:25:23.552Z,1.20
2023-01-27T13:27:57.460Z,1.13
2023-01-27T13:30:29.822Z,2.10
2023-01-27T13:33:03.892Z,0.73
2023-01-27T13:35:36.361Z,2.20
2023-01-27T13:38:12.343Z,3.83
2023-01-27T13:40:45.960Z,1.00
2023-01-27T13:43:20.119Z,0.63
2023-01-27T13:45:54.796Z,0.90
2023-01-27T13:48:27.305Z,3.13
2023-01-27T13:51:03.509Z,1.70
2023-01-27T13:53:31.425Z,3.63
2023-01-27T13:56:12.711Z,1.10
2023-01-27T13:58:51.301Z,1.20
2023-01-27T14:01:26.239Z,2.37
2023-01-27T14:04:26.238Z,1.23
2023-01-27T14:07:04.082Z,3.87
2023-01-27T14:09:42.716Z,1.10
2023-01-27T14:12:28.070Z,1.27
2023-01-27T14:15:06.858Z,2.27
2023-01-27T14:17:44.612Z,1.70
2023-01-27T14:20:28.508Z,2.17
2023-01-27T14:23:11.487Z,2.00
2023-01-27T14:25:48.008Z,1.77
2023-01-27T14:28:29.817Z,1.83
2023-01-27T14:31:03.019Z,2.13
2023-01-27T14:33:47.446Z,1.63
2023-01-27T14:36:21.371Z,1.13
2023-01-27T14:39:00.430Z,3.43
2023-01-27T14:41:35.719Z,2.50
2023-01-27T14:44:15.455Z,1.83
2023-01-27T14:46:57.181Z,2.53
2023-01-27T14:49:44.982Z,3.63
2023-01-27T14:52:25.323Z,1.47
2023-01-27T14:55:10.211Z,2.70
2023-01-27T14:57:47.008Z,1.63
2023-01-27T15:00:28.556Z,1.53
2023-01-27T15:03:16.429Z,4.67
2023-01-27T15:05:54.849Z,2.37
2023-01-27T15:08:30.966Z,3.67
2023-01-27T15:11:15.435Z,2.93
2023-01-27T15:13:59.736Z,3.10
2023-01-27T15:16:46.880Z,2.83
2023-01-27T15:19:35.845Z,2.73
2023-01-27T15:22:32.779Z,3.03
2023-01-27T15:25:22.064Z,2.27
2023-01-27T15:27:53.525Z,6.10
2023-01-27T15:30:27.803Z,2.30
2023-01-27T15:32:57.152Z,3.03
2023-01-27T15:35:37.034Z,4.40
2023-01-27T15:38:37.968Z,2.00
2023-01-27T15:41:15.626Z,4.77
2023-01-27T15:44:05.222Z,2.80
2023-01-27T15:46:36.167Z,2.53
2023-01-27T15:49:14.048Z,7.17
2023-01-27T15:51:42.136Z,3.57
2023-01-27T15:54:18.035Z,2.43
2023-01-27T15:56:50.431Z,3.07
2023-01-27T15:59:22.724Z,1.30
2023-01-27T16:02:00.917Z,2.30
2023-01-27T16:04:33.159Z,1.17
2023-01-27T16:07:04.158Z,0.83
2023-01-27T16:09:37.120Z,1.23
2023-01-27T16:12:08.079Z,1.83
2023-01-27T16:14:46.182Z,1.10
2023-01-27T16:17:22.654Z,1.97
2023-01-27T16:19:59.015Z,2.50
2023-01-27T16:22:28.729Z,1.87
2023-01-27T16:25:01.096Z,2.67
2023-01-27T16:27:43.578Z,1.60
2023-01-27T16:30:21.311Z,1.90
2023-01-27T16:33:03.140Z,1.93
2023-01-27T16:35:34.803Z,2.60
2023-01-27T16:38:11.985Z,2.30
2023-01-27T16:40:40.485Z,2.57
2023-01-27T16:43:17.954Z,2.60
2023-01-27T16:45:48.637Z,2.37
2023-01-27T16:48:23.974Z,2.50
2023-01-27T16:50:55.136Z,2.00
2023-01-27T16:53:25.946Z,3.57
2023-01-27T16:55:58.243Z,3.83
2023-01-27T16:58:39.730Z,3.07
2023-01-27T17:01:21.463Z,4.70
2023-01-27T17:03:49.885Z,3.33
2023-01-27T17:06:19.111Z,6.57
2023-01-27T17:08:48.827Z,5.27
2023-01-27T17:11:24.090Z,4.63
2023-01-27T17:13:58.554Z,3.40
2023-01-27T17:16:29.741Z,2.73
2023-01-27T17:19:09.181Z,3.47
2023-01-27T17:21:42.657Z,4.37
2023-01-27T17:24:18.878Z,7.70
2023-01-27T17:26:50.015Z,4.13
2023-01-27T17:29:21.414Z,3.90
2023-01-27T17:31:50.241Z,4.87
2023-01-27T17:34:20.851Z,5.17
2023-01-27T17:37:15.539Z,4.60
2023-01-27T17:39:44.197Z,3.70
2023-01-27T17:42:15.666Z,2.03
2023-01-27T17:44:43.595Z,3.60
2023-01-27T17:47:14.765Z,4.20
2023-01-27T17:49:43.942Z,3.40
2023-01-27T17:52:19.518Z,2.53
2023-01-27T17:54:47.816Z,4.43
2023-01-27T17:57:21.611Z,3.33
2023-01-27T17:59:58.488Z,3.77
2023-01-27T18:02:28.742Z,3.20
2023-01-27T18:05:00.716Z,4.67
2023-01-27T18:07:30.076Z,4.63
2023-01-27T18:09:58.092Z,7.90
2023-01-27T18:12:32.552Z,4.60
2023-01-27T18:15:00.743Z,2.47
2023-01-27T18:17:32.032Z,3.07
2023-01-27T18:19:59.843Z,5.07
2023-01-27T18:22:29.320Z,3.53
2023-01-27T18:25:00.739Z,3.07
2023-01-27T18:27:31.252Z,3.60
2023-01-27T18:30:02.864Z,2.60
2023-01-27T18:32:40.252Z,2.70
2023-01-27T18:35:25.179Z,2.30
2023-01-27T18:37:57.616Z,4.13
2023-01-27T18:40:29.176Z,3.00
2023-01-27T18:42:58.727Z,3.03
2023-01-27T18:45:27.478Z,3.03
2023-01-27T18:47:55.868Z,3.47
2023-01-27T18:50:25.801Z,5.23
2023-01-27T18:52:55.247Z,7.57
2023-01-27T18:55:25.279Z,5.33
2023-01-27T18:57:55.308Z,8.17
2023-01-27T19:00:24.845Z,5.43
2023-01-27T19:02:56.217Z,4.80
2023-01-27T19:05:26.661Z,5.13
2023-01-27T19:07:56.024Z,5.30
2023-01-27T19:10:25.843Z,6.17
2023-01-27T19:12:53.769Z,3.17
2023-01-27T19:15:24.051Z,2.93
2023-01-27T19:17:52.832Z,3.63
2023-01-27T19:20:22.879Z,5.40
2023-01-27T19:22:52.781Z,5.83
2023-01-27T19:25:23.074Z,6.83
2023-01-27T19:28:00.257Z,5.93
2023-01-27T19:30:29.930Z,5.27
2023-01-27T19:32:58.223Z,9.23
2023-01-27T19:35:27.860Z,10.47
2023-01-27T19:37:57.839Z,4.23
2023-01-27T19:40:28.569Z,6.53
2023-01-27T19:42:56.569Z,4.53
2023-01-27T19:45:24.811Z,4.40
2023-01-27T19:47:52.951Z,4.87
2023-01-27T19:50:23.220Z,4.33
2023-01-27T19:52:51.545Z,6.63
2023-01-27T19:55:21.462Z,5.43
2023-01-27T19:57:52.665Z,4.83
2023-01-27T20:00:26.783Z,5.73
2023-01-27T20:02:55.360Z,4.07
2023-01-27T20:05:23.829Z,5.57
2023-01-27T20:07:51.733Z,8.10
2023-01-27T20:10:21.071Z,5.70
2023-01-27T20:12:55.998Z,4.70
2023-01-27T20:15:25.533Z,3.63
2023-01-27T20:17:53.640Z,4.97
2023-01-27T20:20:21.748Z,3.80
2023-01-27T20:22:49.736Z,4.07
2023-01-27T20:25:20.297Z,3.30
2023-01-27T20:27:49.709Z,4.13
2023-01-27T20:30:20.233Z,5.43
2023-01-27T20:32:48.361Z,5.80
2023-01-27T20:35:18.861Z,5.10
2023-01-27T20:37:48.540Z,3.57
2023-01-27T20:40:18.456Z,4.93
2023-01-27T20:42:46.273Z,4.47
2023-01-27T20:45:15.384Z,4.40
2023-01-27T20:47:48.676Z,3.40
2023-01-27T20:50:16.468Z,3.30
2023-01-27T20:52:44.304Z,4.57
2023-01-27T20:55:14.654Z,4.10
2023-01-27T20:57:42.903Z,3.53
2023-01-27T21:00:16.201Z,5.00
2023-01-27T21:02:45.363Z,4.13
2023-01-27T21:05:13.595Z,4.70
2023-01-27T21:07:41.477Z,4.70
2023-01-27T21:10:10.289Z,4.83
2023-01-27T21:12:38.059Z,5.07
2023-01-27T21:15:09.760Z,4.83
2023-01-27T21:17:37.985Z,4.63
2023-01-27T21:20:08.914Z,6.53
2023-01-27T21:22:36.590Z,4.23
2023-01-27T21:25:04.488Z,6.23
2023-01-27T21:27:32.414Z,5.80
2023-01-27T21:30:00.147Z,4.67
2023-01-27T21:32:28.130Z,4.80
2023-01-27T21:34:56.501Z,4.93
2023-01-27T21:37:25.569Z,6.83
2023-01-27T21:39:53.263Z,5.10
2023-01-27T21:42:38.484Z,8.27
2023-01-27T21:45:16.701Z,5.97
2023-01-27T21:47:44.741Z,7.00
2023-01-27T21:50:14.573Z,8.20
2023-01-27T21:52:45.984Z,6.33
2023-01-27T21:55:16.217Z,6.13
2023-01-27T21:57:45.778Z,5.00
2023-01-27T22:00:15.199Z,5.30
2023-01-27T22:02:43.603Z,5.03
2023-01-27T22:05:12.701Z,6.00
2023-01-27T22:07:41.759Z,6.53
2023-01-27T22:10:15.918Z,4.70
2023-01-27T22:12:43.911Z,4.40
2023-01-27T22:15:14.002Z,4.50
2023-01-27T22:17:42.276Z,4.63
2023-01-27T22:20:14.045Z,5.93
2023-01-27T22:22:42.033Z,4.50
2023-01-27T22:25:15.131Z,7.00
2023-01-27T22:27:43.773Z,5.70
2023-01-27T22:30:14.754Z,7.70
2023-01-27T22:32:43.461Z,6.33
2023-01-27T22:35:11.984Z,5.57
2023-01-27T22:37:40.202Z,6.13
2023-01-27T22:40:09.276Z,5.57
2023-01-27T22:42:39.926Z,5.93
2023-01-27T22:45:09.509Z,5.87
2023-01-27T22:47:37.478Z,7.93
2023-01-27T22:50:05.828Z,7.83
2023-01-27T22:52:36.277Z,6.47
2023-01-27T22:55:04.515Z,6.93
2023-01-27T22:57:32.547Z,7.00
2023-01-27T23:00:01.957Z,6.70
2023-01-27T23:02:30.109Z,7.97
2023-01-27T23:04:58.640Z,8.00
2023-01-27T23:07:27.448Z,8.37
2023-01-27T23:09:55.327Z,5.90
2023-01-27T23:12:23.306Z,7.20
2023-01-27T23:14:51.234Z,7.53
2023-01-27T23:17:20.682Z,8.63
2023-01-27T23:19:48.563Z,7.87
2023-01-27T23:22:16.463Z,5.40
2023-01-27T23:24:44.473Z,5.60
2023-01-27T23:27:12.478Z,6.93
2023-01-27T23:29:40.393Z,6.90
2023-01-27T23:32:08.573Z,7.33
2023-01-27T23:34:37.909Z,9.07
2023-01-27T23:37:05.968Z,5.97
2023-01-27T23:39:34.300Z,7.23
2023-01-27T23:42:02.173Z,7.20
2023-01-27T23:44:30.021Z,8.23
2023-01-27T23:46:58.043Z,11.40
2023-01-27T23:49:25.915Z,8.33
2023-01-27T23:51:55.269Z,7.93
2023-01-27T23:54:23.220Z,10.27
2023-01-27T23:56:51.665Z,6.67
2023-01-27T23:59:19.612Z,5.73
